Rio Blanco — D5BO9 — position and weather

sailwx.info

Track history (hours):
 
Tides and Currents Weather Stations Pressure Air Temp Water Temp Dewpoint Dewpoint Depression Visibility Wind Speed Wind Dir Waves Ship Positions

Rio Blanco

Last reported at 2017-Apr-27 18:30 UTC. Time now 2017-Apr-27 18:56 UTC.
Position N 50°32' E 000°17'.

Length 286 m; draft 10.5 m.

Type: Ship (hazmat cat A). MMSI: 636092395.

Date/timePositionNaut miles runAvg speedWind from/ knotsBaromVisibWave heightAir tempDewpointWater temp
2017-Apr-27 18:30N 50°32' E 000°17'713.4
2017-Apr-27 18:00N 50°34' E 000°27'713.8
2017-Apr-27 17:31N 50°36' E 000°37'713.8
2017-Apr-27 17:01N 50°40' E 000°46'713.7
2017-Apr-27 16:30N 50°44' E 000°55'713.2
2017-Apr-27 16:00N 50°48' E 001°03'612.7
2017-Apr-27 15:30N 50°52' E 001°12'612.1
2017-Apr-27 15:00N 50°55' E 001°19'1110.6
2017-Apr-27 14:01N 51°03' E 001°31'4 8.9
2017-Apr-27 13:30N 51°07' E 001°35'4 8.8
2017-Apr-27 13:01N 51°10' E 001°39'5 9.5
2017-Apr-27 12:30N 51°13' E 001°45'510.5
2017-Apr-27 12:00N 51°18' E 001°49'611.5
2017-Apr-27 11:30N 51°23' E 001°54'612.8
2017-Apr-27 11:00N 51°28' E 001°59'714.2
2017-Apr-27 10:31N 51°34' E 002°05'714.9
2017-Apr-27 10:00N 51°41' E 002°11'7713.5
2017-Apr-27 04:16N 52°40' E 003°33'311.6
2017-Apr-27 03:59N 52°42' E 003°36'611.4
2017-Apr-27 03:30N 52°46' E 003°42'611.4
2017-Apr-27 03:00N 52°51' E 003°49'611.5
2017-Apr-27 02:30N 52°55' E 003°55'612.0
2017-Apr-27 02:00N 52°59' E 004°02'612.7
2017-Apr-27 01:30N 53°03' E 004°10'713.3
2017-Apr-27 01:00N 53°08' E 004°18'713.4
2017-Apr-27 00:30N 53°13' E 004°25'12811.7
2017-Apr-26 13:35N 54°02' E 007°44'112.5
2017-Apr-26 13:28N 54°01' E 007°47'612.6
2017-Apr-26 13:00N 54°01' E 007°57'613.0
2017-Apr-26 12:30N 54°01' E 008°08'714.1
2017-Apr-26 12:00N 53°60' E 008°20'917.1
2017-Apr-26 11:30N 53°58' E 008°34'714.1
2017-Apr-26 11:00N 53°53' E 008°42'4 8.5
2017-Apr-26 10:30N 53°50' E 008°48'613.0
2017-Apr-26 10:00N 53°51' E 008°59'612.5
2017-Apr-26 09:30N 53°53' E 009°09'5 9.6
2017-Apr-26 09:01N 53°52' E 009°17'714.5
2017-Apr-26 08:31N 53°46' E 009°24'713.9
2017-Apr-26 08:01N 53°40' E 009°31'612.6
2017-Apr-26 07:30N 53°35' E 009°37'510.6
2017-Apr-26 07:00N 53°34' E 009°45'5 9.6
2017-Apr-26 06:30N 53°33' E 009°53'2 3.1
2017-Apr-26 06:00N 53°32' E 009°56'0 0.0
2017-Apr-26 05:30N 53°32' E 009°56'0 0.0
2017-Apr-26 04:58N 53°32' E 009°56'0 0.0
2017-Apr-26 04:28N 53°32' E 009°56'0 0.0
2017-Apr-26 03:58N 53°32' E 009°56'0 0.0
2017-Apr-26 03:28N 53°32' E 009°56'0 0.0
2017-Apr-26 02:58N 53°32' E 009°56'0 0.0
2017-Apr-26 02:28N 53°32' E 009°56'0 0.0
2017-Apr-26 01:58N 53°32' E 009°56'0 0.0
2017-Apr-26 01:28N 53°32' E 009°56'0 0.0
2017-Apr-26 00:58N 53°32' E 009°56'0 0.0
2017-Apr-26 00:28N 53°32' E 009°56'0 0.0
2017-Apr-25 23:58N 53°32' E 009°56'0 0.0
2017-Apr-25 23:28N 53°32' E 009°56'0 0.0
2017-Apr-25 22:58N 53°32' E 009°56'0 0.0
2017-Apr-25 22:28N 53°32' E 009°56'0 0.0
2017-Apr-25 21:58N 53°32' E 009°56'0 0.0
2017-Apr-25 21:28N 53°32' E 009°56'0 0.0
2017-Apr-25 20:58N 53°32' E 009°56'0 0.0
2017-Apr-25 20:28N 53°32' E 009°56'0 0.0
2017-Apr-25 19:58N 53°32' E 009°56'0 0.0
2017-Apr-25 19:28N 53°32' E 009°56'0 0.0
2017-Apr-25 18:58N 53°32' E 009°56'0 0.0
2017-Apr-25 18:28N 53°32' E 009°55'0 0.0
2017-Apr-25 17:58N 53°32' E 009°56'0 0.0
2017-Apr-25 17:28N 53°32' E 009°56'0 0.0
2017-Apr-25 16:58N 53°32' E 009°56'0 0.0
2017-Apr-25 16:28N 53°32' E 009°56'0 0.0
2017-Apr-25 15:58N 53°32' E 009°55'0 0.0
2017-Apr-25 15:28N 53°32' E 009°56'0 0.0
2017-Apr-25 14:58N 53°32' E 009°56'0 0.0
2017-Apr-25 13:58N 53°32' E 009°56'0 0.0
2017-Apr-25 13:28N 53°32' E 009°56'0 0.0
2017-Apr-25 12:58N 53°32' E 009°56'0 0.0
2017-Apr-25 12:28N 53°32' E 009°56'0 0.0
2017-Apr-25 11:58N 53°32' E 009°56'0 0.0
2017-Apr-25 11:28N 53°32' E 009°55'0 0.0
2017-Apr-25 10:58N 53°32' E 009°56'0 0.0
2017-Apr-25 10:28N 53°32' E 009°56'0 0.0
2017-Apr-25 09:58N 53°32' E 009°56'0 0.0
2017-Apr-25 09:28N 53°32' E 009°56'0 0.0
2017-Apr-25 08:58N 53°32' E 009°56'0 0.0
2017-Apr-25 08:30N 53°32' E 009°56'0 0.0
2017-Apr-25 08:00N 53°32' E 009°56'0 0.0
2017-Apr-25 07:30N 53°32' E 009°56'0 0.0
2017-Apr-25 07:00N 53°32' E 009°56'0 0.0
2017-Apr-25 06:30N 53°32' E 009°56'0 0.0
2017-Apr-25 06:00N 53°32' E 009°56'0 0.0
2017-Apr-25 05:30N 53°32' E 009°56'0 0.0
2017-Apr-25 05:00N 53°32' E 009°56'0 0.0
2017-Apr-25 04:30N 53°32' E 009°56'1 1.6
2017-Apr-25 04:00N 53°32' E 009°54'2 3.4
2017-Apr-25 03:30N 53°33' E 009°52'4 7.3
2017-Apr-25 03:00N 53°34' E 009°46'611.4
2017-Apr-25 02:30N 53°35' E 009°37'611.2
2017-Apr-25 02:00N 53°40' E 009°31'713.1
2017-Apr-25 01:30N 53°45' E 009°24'815.6
2017-Apr-25 01:01N 53°52' E 009°17'611.6
2017-Apr-25 00:30N 53°53' E 009°08'612.6
2017-Apr-25 00:00N 53°51' E 008°58'816.0
2017-Apr-24 23:30N 53°52' E 008°44'815.8
2017-Apr-24 23:00N 53°58' E 008°35'917.3
2017-Apr-24 22:30N 53°59' E 008°21'713.0
2017-Apr-24 22:00N 53°59' E 008°10'5 9.9
2017-Apr-24 21:30N 53°59' E 008°01'612.1
2017-Apr-24 21:00N 53°58' E 007°51'612.8
2017-Apr-24 20:30N 53°56' E 007°41'612.8
2017-Apr-24 20:00N 53°55' E 007°30'8913.5
2017-Apr-24 13:24N 53°30' E 005°05'614.3
2017-Apr-24 12:59N 53°28' E 004°56'714.0
2017-Apr-24 12:30N 53°25' E 004°45'1113.6
2017-Apr-24 11:41N 53°16' E 004°35'413.7
2017-Apr-24 11:25N 53°13' E 004°32'613.8
2017-Apr-24 11:00N 53°08' E 004°28'713.5
2017-Apr-24 10:30N 53°02' E 004°23'713.1
2017-Apr-24 10:00N 52°56' E 004°18'612.8
2017-Apr-24 09:31N 52°50' E 004°13'612.5
2017-Apr-24 09:01N 52°45' E 004°07'612.6
2017-Apr-24 08:31N 52°40' E 004°00'612.4
2017-Apr-24 08:00N 52°36' E 003°54'612.4
2017-Apr-24 07:31N 52°31' E 003°47'612.4
2017-Apr-24 07:01N 52°27' E 003°39'612.3
2017-Apr-24 06:30N 52°23' E 003°32'611.4
2017-Apr-24 06:00N 52°17' E 003°29'611.2
2017-Apr-24 05:29N 52°12' E 003°27'811.6
2017-Apr-24 04:49N 52°04' E 003°25'711.9
2017-Apr-24 04:16N 51°57' E 003°24'312.3
2017-Apr-24 04:00N 51°54' E 003°23'712.8
2017-Apr-24 03:28N 51°48' E 003°17'5 9.9
2017-Apr-24 03:00N 51°44' E 003°14'613.2
2017-Apr-24 02:30N 51°38' E 003°11'918.5
2017-Apr-24 02:00N 51°30' E 003°04'510.5
2017-Apr-24 01:30N 51°25' E 003°04'917.4
2017-Apr-24 01:00N 51°24' E 003°18'917.5
2017-Apr-24 00:30N 51°26' E 003°31'510.0
2017-Apr-24 00:01N 51°27' E 003°39'612.5
2017-Apr-23 23:31N 51°22' E 003°46'611.7
2017-Apr-23 23:00N 51°22' E 003°55'510.4
2017-Apr-23 22:30N 51°26' E 004°01'510.1
2017-Apr-23 22:00N 51°22' E 004°07'4 7.9
2017-Apr-23 21:30N 51°23' E 004°13'4 7.5
2017-Apr-23 21:00N 51°19' E 004°16'2 3.5
2017-Apr-23 20:27N 51°18' E 004°16'0 0.0
2017-Apr-23 19:59N 51°18' E 004°16'0 0.0
2017-Apr-23 19:29N 51°18' E 004°16'0 0.0
2017-Apr-23 18:56N 51°18' E 004°16'0 0.0
2017-Apr-23 18:29N 51°18' E 004°16'0 0.0
2017-Apr-23 17:56N 51°18' E 004°16'0 0.0
2017-Apr-23 17:23N 51°18' E 004°16'0 0.0
2017-Apr-23 16:57N 51°18' E 004°16'0 0.0
2017-Apr-23 16:29N 51°18' E 004°16'0 0.0
2017-Apr-23 15:59N 51°18' E 004°16'0 0.0
2017-Apr-23 15:29N 51°18' E 004°16'0 0.0
2017-Apr-23 14:59N 51°18' E 004°16'0 0.0
2017-Apr-23 14:29N 51°18' E 004°16'0 0.0
2017-Apr-23 13:29N 51°18' E 004°16'0 0.0
2017-Apr-23 12:56N 51°18' E 004°16'0 0.0
2017-Apr-23 12:29N 51°18' E 004°16'0 0.0
2017-Apr-23 11:59N 51°18' E 004°16'0 0.0
2017-Apr-23 11:27N 51°18' E 004°16'0 0.0
2017-Apr-23 10:59N 51°18' E 004°16'0 0.0
2017-Apr-23 10:29N 51°18' E 004°16'0 0.0
2017-Apr-23 09:59N 51°18' E 004°16'0 0.0
2017-Apr-23 09:29N 51°18' E 004°16'0 0.0
2017-Apr-23 08:59N 51°18' E 004°16'0 0.0
2017-Apr-23 08:29N 51°18' E 004°16'0 0.0
2017-Apr-23 07:59N 51°18' E 004°16'0 0.0
2017-Apr-23 07:29N 51°18' E 004°16'0 0.0
2017-Apr-23 06:59N 51°18' E 004°16'0 0.0
2017-Apr-23 06:29N 51°18' E 004°16'0 0.0
2017-Apr-23 05:53N 51°18' E 004°16'0 0.0
2017-Apr-23 05:29N 51°18' E 004°16'0 0.0
2017-Apr-23 04:59N 51°18' E 004°16'0 0.0
2017-Apr-23 04:29N 51°18' E 004°16'0 0.0
2017-Apr-23 03:59N 51°18' E 004°16'0 0.0
2017-Apr-23 03:29N 51°18' E 004°16'0 0.0
2017-Apr-23 03:01N 51°18' E 004°16'0 0.2
2017-Apr-23 02:30N 51°18' E 004°16'2 3.6
2017-Apr-23 02:00N 51°19' E 004°16'510.0
2017-Apr-23 01:30N 51°24' E 004°12'611.8
2017-Apr-23 01:00N 51°23' E 004°03'4 7.5
2017-Apr-23 00:30N 51°24' E 003°57'612.8
2017-Apr-23 00:01N 51°21' E 003°48'713.5
2017-Apr-22 23:30N 51°26' E 003°41'510.6
2017-Apr-22 23:00N 51°25' E 003°32'815.8
2017-Apr-22 22:31N 51°24' E 003°20'816.6
2017-Apr-22 22:01N 51°24' E 003°07'815.8
2017-Apr-22 21:31N 51°22' E 002°54'611.3
2017-Apr-22 21:00N 51°22' E 002°45'611.4
2017-Apr-22 20:30N 51°22' E 002°36'611.3
2017-Apr-22 20:00N 51°21' E 002°27'5 9.8
2017-Apr-22 19:31N 51°19' E 002°20'4 8.4
2017-Apr-22 19:01N 51°19' E 002°13'5 9.0
2017-Apr-22 18:30N 51°20' E 002°07'5 9.2
2017-Apr-22 18:00N 51°22' E 002°00'5 9.0
2017-Apr-22 17:30N 51°26' E 001°56'5 9.8
2017-Apr-22 17:00N 51°30' E 001°51'5 9.9
2017-Apr-22 16:31N 51°34' E 001°48'510.8
2017-Apr-22 16:00N 51°39' E 001°44'612.5
2017-Apr-22 15:30N 51°46' E 001°44'510.8
2017-Apr-22 15:01N 51°50' E 001°40'5 9.7
2017-Apr-22 14:31N 51°53' E 001°33'1010.1
2017-Apr-22 13:30N 51°57' E 001°18'1 1.3
2017-Apr-22 13:00N 51°58' E 001°18'0 0.0
2017-Apr-22 12:28N 51°58' E 001°18'0 0.0
2017-Apr-22 11:58N 51°58' E 001°18'0 0.0
2017-Apr-22 11:28N 51°58' E 001°18'0 0.0
2017-Apr-22 10:58N 51°58' E 001°18'0 0.0
2017-Apr-22 10:28N 51°58' E 001°18'0 0.0
2017-Apr-22 09:58N 51°58' E 001°18'0 0.0
2017-Apr-22 09:28N 51°58' E 001°18'0 0.0
2017-Apr-22 08:58N 51°58' E 001°18'0 0.0
2017-Apr-22 08:28N 51°58' E 001°18'0 0.0
2017-Apr-22 07:58N 51°58' E 001°18'0 0.0
2017-Apr-22 07:28N 51°58' E 001°18'0 0.0
2017-Apr-22 06:58N 51°58' E 001°18'0 0.0
2017-Apr-22 06:28N 51°58' E 001°18'0 0.0
2017-Apr-22 05:58N 51°58' E 001°18'0 0.0
2017-Apr-22 05:28N 51°58' E 001°18'0 0.0
2017-Apr-22 04:58N 51°58' E 001°18'0 0.0
2017-Apr-22 04:28N 51°58' E 001°18'0 0.0
2017-Apr-22 03:58N 51°58' E 001°18'0 0.0
2017-Apr-22 03:28N 51°58' E 001°18'0 0.0
2017-Apr-22 02:58N 51°58' E 001°18'0 0.0
2017-Apr-22 02:28N 51°58' E 001°18'0 0.0
2017-Apr-22 01:58N 51°58' E 001°18'0 0.0
2017-Apr-22 01:28N 51°58' E 001°18'0 0.0
2017-Apr-22 00:58N 51°58' E 001°18'0 0.0
2017-Apr-22 00:28N 51°58' E 001°18'0 0.0
2017-Apr-21 23:58N 51°58' E 001°18'0 0.0
2017-Apr-21 23:30N 51°58' E 001°18'0 0.0
2017-Apr-21 23:00N 51°58' E 001°18'0 0.0
2017-Apr-21 22:30N 51°58' E 001°18'0 0.0
2017-Apr-21 22:00N 51°58' E 001°18'0 0.0
2017-Apr-21 21:30N 51°58' E 001°18'0 0.0
2017-Apr-21 21:00N 51°58' E 001°18'0 0.0
2017-Apr-21 20:30N 51°58' E 001°18'0 0.0
2017-Apr-21 20:00N 51°58' E 001°18'0 0.0
2017-Apr-21 19:30N 51°58' E 001°18'0 0.0
2017-Apr-21 19:00N 51°58' E 001°18'0 0.0
2017-Apr-21 18:30N 51°58' E 001°18'0 0.0
2017-Apr-21 18:00N 51°58' E 001°18'0 0.0
2017-Apr-21 17:30N 51°58' E 001°18'0 0.0
2017-Apr-21 17:00N 51°58' E 001°18'1 2.6
2017-Apr-21 16:30N 51°57' E 001°19'510.0
2017-Apr-21 16:00N 51°56' E 001°27'510.8
2017-Apr-21 15:30N 51°53' E 001°34'612.3
2017-Apr-21 15:00N 51°51' E 001°43'713.1
2017-Apr-21 14:31N 51°45' E 001°48'1919.4
2017-Apr-21 13:30N 51°27' E 001°60'917.4
2017-Apr-21 13:00N 51°18' E 001°57'1019.7
2017-Apr-21 12:30N 51°11' E 001°47'817.0
2017-Apr-21 12:00N 51°04' E 001°38'714.8
2017-Apr-21 11:30N 50°58' E 001°31'714.9
2017-Apr-21 11:00N 50°52' E 001°26'714.6
2017-Apr-21 10:30N 50°45' E 001°23'714.2
2017-Apr-21 10:00N 50°39' E 001°16'815.3
2017-Apr-21 09:30N 50°34' E 001°07'815.5
2017-Apr-21 09:00N 50°30' E 000°56'816.0
2017-Apr-21 08:30N 50°28' E 000°44'916.0
2017-Apr-21 07:58N 50°26' E 000°31'716.0
2017-Apr-21 07:30N 50°24' E 000°20'816.4
2017-Apr-21 07:00N 50°22' E 000°08'918.8
2017-Apr-21 06:30N 50°19' W 000°07'1019.0
2017-Apr-21 06:00N 50°17' W 000°21'1019.2
2017-Apr-21 05:30N 50°14' W 000°35'1019.5
2017-Apr-21 05:00N 50°12' W 000°50'1019.8
2017-Apr-21 04:30N 50°09' W 001°05'1020.1
2017-Apr-21 04:00N 50°06' W 001°20'1020.3
2017-Apr-21 03:30N 50°04' W 001°35'1020.4
2017-Apr-21 03:00N 50°01' W 001°51'1020.3
2017-Apr-21 02:30N 49°58' W 002°06'1520.0
2017-Apr-21 01:45N 49°54' W 002°28'519.5
2017-Apr-21 01:28N 49°52' W 002°36'919.3
2017-Apr-21 01:00N 49°49' W 002°50'1219.1
2017-Apr-21 00:24N 49°46' W 003°07'718.9
2017-Apr-21 00:00N 49°43' W 003°17'1118.9
2017-Apr-20 23:27N 49°37' W 003°32'1118.8
2017-Apr-20 22:51N 49°32' W 003°46'618.7
2017-Apr-20 22:30N 49°28' W 003°54'5118.5
2017-Apr-20 19:46N 49°02' W 005°01'518.9
2017-Apr-20 19:29N 48°59' W 005°08'918.7
2017-Apr-20 18:58N 48°54' W 005°20'918.5
2017-Apr-20 18:30N 48°49' W 005°31'918.1
2017-Apr-20 18:00N 48°42' W 005°41'1218.1
2017-Apr-20 17:22N 48°32' W 005°50'55214.5
2017-Apr-19 03:18N 39°49' W 009°52'620.1
2017-Apr-19 03:00N 39°43' W 009°52'1020.3
2017-Apr-19 02:30N 39°32' W 009°52'1020.5
2017-Apr-19 02:00N 39°22' W 009°52'1020.4
2017-Apr-19 01:30N 39°12' W 009°52'1020.5
2017-Apr-19 01:00N 39°02' W 009°52'1020.6
2017-Apr-19 00:30N 38°51' W 009°52'1020.8
2017-Apr-19 00:00N 38°41' W 009°51'1121.1
2017-Apr-18 23:30N 38°31' W 009°48'1121.8
2017-Apr-18 23:01N 38°20' W 009°45'1122.3
2017-Apr-18 22:31N 38°09' W 009°41'1122.0
2017-Apr-18 22:01N 37°59' W 009°38'1122.2
2017-Apr-18 21:31N 37°48' W 009°34'1122.3
2017-Apr-18 21:01N 37°37' W 009°31'1122.1
2017-Apr-18 20:30N 37°26' W 009°27'1122.3
2017-Apr-18 20:00N 37°15' W 009°24'1221.8
2017-Apr-18 19:27N 37°04' W 009°21'1022.1
2017-Apr-18 19:00N 36°54' W 009°18'1122.0
2017-Apr-18 18:31N 36°46' W 009°10'1121.8
2017-Apr-18 18:00N 36°42' W 008°57'1221.9
2017-Apr-18 17:27N 36°38' W 008°43'1021.8
2017-Apr-18 16:59N 36°35' W 008°31'1121.8
2017-Apr-18 16:30N 36°31' W 008°18'1323.5
2017-Apr-18 15:58N 36°27' W 008°03'1120.2
2017-Apr-18 15:25N 36°24' W 007°50'1021.9
2017-Apr-18 14:57N 36°20' W 007°38'5021.8
2017-Apr-18 12:39N 36°04' W 006°40'3721.3
2017-Apr-18 10:54N 35°59' W 005°54'1020.7
2017-Apr-18 10:25N 35°58' W 005°42'819.6
2017-Apr-18 10:01N 35°59' W 005°32'917.0
2017-Apr-18 09:31N 36°04' W 005°24'5 9.0
2017-Apr-18 09:01N 36°08' W 005°26'0 0.3
2017-Apr-18 08:26N 36°08' W 005°26'0 0.0
2017-Apr-18 07:59N 36°08' W 005°26'0 0.0
2017-Apr-18 07:29N 36°08' W 005°26'0 0.0
2017-Apr-18 06:59N 36°08' W 005°26'0 0.0
2017-Apr-18 06:26N 36°08' W 005°26'0 0.0
2017-Apr-18 05:59N 36°08' W 005°26'0 0.0
2017-Apr-18 05:29N 36°08' W 005°26'0 0.0
2017-Apr-18 04:59N 36°08' W 005°26'0 0.0
2017-Apr-18 04:29N 36°08' W 005°26'0 0.0
2017-Apr-18 03:59N 36°08' W 005°26'0 0.0
2017-Apr-18 03:29N 36°08' W 005°26'0 0.0
2017-Apr-18 02:59N 36°08' W 005°26'0 0.0
2017-Apr-18 02:29N 36°08' W 005°26'0 0.0
2017-Apr-18 01:59N 36°08' W 005°26'0 0.0
2017-Apr-18 01:29N 36°08' W 005°26'0 0.0
2017-Apr-18 00:59N 36°08' W 005°26'0 0.0
2017-Apr-18 00:29N 36°08' W 005°26'0 0.0
2017-Apr-17 23:59N 36°08' W 005°26'0 0.0
2017-Apr-17 23:29N 36°08' W 005°26'0 0.0
2017-Apr-17 22:59N 36°08' W 005°26'0 0.0
2017-Apr-17 22:29N 36°08' W 005°26'0 0.0
2017-Apr-17 21:59N 36°08' W 005°26'0 0.0
2017-Apr-17 21:29N 36°08' W 005°26'0 0.0
2017-Apr-17 20:59N 36°08' W 005°26'0 0.0
2017-Apr-17 20:29N 36°08' W 005°26'0 0.0
2017-Apr-17 19:59N 36°08' W 005°26'0 0.0
2017-Apr-17 19:29N 36°08' W 005°26'0 0.0
2017-Apr-17 18:59N 36°08' W 005°26'  
Track history (hours):
 
Tides and Currents Weather Stations Pressure Air Temp Water Temp Dewpoint Dewpoint Depression Visibility Wind Speed Wind Dir Waves Ship Positions

Rio Blanco

Last reported at 2017-Apr-27 18:30 UTC. Time now 2017-Apr-27 18:56 UTC.
Position N 50°32' E 000°17'.

Length 286 m; draft 10.5 m.

Type: Ship (hazmat cat A). MMSI: 636092395.

Date/timePositionNaut miles runAvg speedWind from/ knotsBaromVisibWave heightAir tempDewpointWater temp
2017-Apr-27 18:30N 50°32' E 000°17'713.4
2017-Apr-27 18:00N 50°34' E 000°27'713.8
2017-Apr-27 17:31N 50°36' E 000°37'713.8
2017-Apr-27 17:01N 50°40' E 000°46'713.7
2017-Apr-27 16:30N 50°44' E 000°55'713.2
2017-Apr-27 16:00N 50°48' E 001°03'612.7
2017-Apr-27 15:30N 50°52' E 001°12'612.1
2017-Apr-27 15:00N 50°55' E 001°19'1110.6
2017-Apr-27 14:01N 51°03' E 001°31'4 8.9
2017-Apr-27 13:30N 51°07' E 001°35'4 8.8
2017-Apr-27 13:01N 51°10' E 001°39'5 9.5
2017-Apr-27 12:30N 51°13' E 001°45'510.5
2017-Apr-27 12:00N 51°18' E 001°49'611.5
2017-Apr-27 11:30N 51°23' E 001°54'612.8
2017-Apr-27 11:00N 51°28' E 001°59'714.2
2017-Apr-27 10:31N 51°34' E 002°05'714.9
2017-Apr-27 10:00N 51°41' E 002°11'7713.5
2017-Apr-27 04:16N 52°40' E 003°33'311.6
2017-Apr-27 03:59N 52°42' E 003°36'611.4
2017-Apr-27 03:30N 52°46' E 003°42'611.4
2017-Apr-27 03:00N 52°51' E 003°49'611.5
2017-Apr-27 02:30N 52°55' E 003°55'612.0
2017-Apr-27 02:00N 52°59' E 004°02'612.7
2017-Apr-27 01:30N 53°03' E 004°10'713.3
2017-Apr-27 01:00N 53°08' E 004°18'713.4
2017-Apr-27 00:30N 53°13' E 004°25'12811.7
2017-Apr-26 13:35N 54°02' E 007°44'112.5
2017-Apr-26 13:28N 54°01' E 007°47'612.6
2017-Apr-26 13:00N 54°01' E 007°57'613.0
2017-Apr-26 12:30N 54°01' E 008°08'714.1
2017-Apr-26 12:00N 53°60' E 008°20'917.1
2017-Apr-26 11:30N 53°58' E 008°34'714.1
2017-Apr-26 11:00N 53°53' E 008°42'4 8.5
2017-Apr-26 10:30N 53°50' E 008°48'613.0
2017-Apr-26 10:00N 53°51' E 008°59'612.5
2017-Apr-26 09:30N 53°53' E 009°09'5 9.6
2017-Apr-26 09:01N 53°52' E 009°17'714.5
2017-Apr-26 08:31N 53°46' E 009°24'713.9
2017-Apr-26 08:01N 53°40' E 009°31'612.6
2017-Apr-26 07:30N 53°35' E 009°37'510.6
2017-Apr-26 07:00N 53°34' E 009°45'5 9.6
2017-Apr-26 06:30N 53°33' E 009°53'2 3.1
2017-Apr-26 06:00N 53°32' E 009°56'0 0.0
2017-Apr-26 05:30N 53°32' E 009°56'0 0.0
2017-Apr-26 04:58N 53°32' E 009°56'0 0.0
2017-Apr-26 04:28N 53°32' E 009°56'0 0.0
2017-Apr-26 03:58N 53°32' E 009°56'0 0.0
2017-Apr-26 03:28N 53°32' E 009°56'0 0.0
2017-Apr-26 02:58N 53°32' E 009°56'0 0.0
2017-Apr-26 02:28N 53°32' E 009°56'0 0.0
2017-Apr-26 01:58N 53°32' E 009°56'0 0.0
2017-Apr-26 01:28N 53°32' E 009°56'0 0.0
2017-Apr-26 00:58N 53°32' E 009°56'0 0.0
2017-Apr-26 00:28N 53°32' E 009°56'0 0.0
2017-Apr-25 23:58N 53°32' E 009°56'0 0.0
2017-Apr-25 23:28N 53°32' E 009°56'0 0.0
2017-Apr-25 22:58N 53°32' E 009°56'0 0.0
2017-Apr-25 22:28N 53°32' E 009°56'0 0.0
2017-Apr-25 21:58N 53°32' E 009°56'0 0.0
2017-Apr-25 21:28N 53°32' E 009°56'0 0.0
2017-Apr-25 20:58N 53°32' E 009°56'0 0.0
2017-Apr-25 20:28N 53°32' E 009°56'0 0.0
2017-Apr-25 19:58N 53°32' E 009°56'0 0.0
2017-Apr-25 19:28N 53°32' E 009°56'0 0.0
2017-Apr-25 18:58N 53°32' E 009°56'0 0.0
2017-Apr-25 18:28N 53°32' E 009°55'0 0.0
2017-Apr-25 17:58N 53°32' E 009°56'0 0.0
2017-Apr-25 17:28N 53°32' E 009°56'0 0.0
2017-Apr-25 16:58N 53°32' E 009°56'0 0.0
2017-Apr-25 16:28N 53°32' E 009°56'0 0.0
2017-Apr-25 15:58N 53°32' E 009°55'0 0.0
2017-Apr-25 15:28N 53°32' E 009°56'0 0.0
2017-Apr-25 14:58N 53°32' E 009°56'0 0.0
2017-Apr-25 13:58N 53°32' E 009°56'0 0.0
2017-Apr-25 13:28N 53°32' E 009°56'0 0.0
2017-Apr-25 12:58N 53°32' E 009°56'0 0.0
2017-Apr-25 12:28N 53°32' E 009°56'0 0.0
2017-Apr-25 11:58N 53°32' E 009°56'0 0.0
2017-Apr-25 11:28N 53°32' E 009°55'0 0.0
2017-Apr-25 10:58N 53°32' E 009°56'0 0.0
2017-Apr-25 10:28N 53°32' E 009°56'0 0.0
2017-Apr-25 09:58N 53°32' E 009°56'0 0.0
2017-Apr-25 09:28N 53°32' E 009°56'0 0.0
2017-Apr-25 08:58N 53°32' E 009°56'0 0.0
2017-Apr-25 08:30N 53°32' E 009°56'0 0.0
2017-Apr-25 08:00N 53°32' E 009°56'0 0.0
2017-Apr-25 07:30N 53°32' E 009°56'0 0.0
2017-Apr-25 07:00N 53°32' E 009°56'0 0.0
2017-Apr-25 06:30N 53°32' E 009°56'0 0.0
2017-Apr-25 06:00N 53°32' E 009°56'0 0.0
2017-Apr-25 05:30N 53°32' E 009°56'0 0.0
2017-Apr-25 05:00N 53°32' E 009°56'0 0.0
2017-Apr-25 04:30N 53°32' E 009°56'1 1.6
2017-Apr-25 04:00N 53°32' E 009°54'2 3.4
2017-Apr-25 03:30N 53°33' E 009°52'4 7.3
2017-Apr-25 03:00N 53°34' E 009°46'611.4
2017-Apr-25 02:30N 53°35' E 009°37'611.2
2017-Apr-25 02:00N 53°40' E 009°31'713.1
2017-Apr-25 01:30N 53°45' E 009°24'815.6
2017-Apr-25 01:01N 53°52' E 009°17'611.6
2017-Apr-25 00:30N 53°53' E 009°08'612.6
2017-Apr-25 00:00N 53°51' E 008°58'816.0
2017-Apr-24 23:30N 53°52' E 008°44'815.8
2017-Apr-24 23:00N 53°58' E 008°35'917.3
2017-Apr-24 22:30N 53°59' E 008°21'713.0
2017-Apr-24 22:00N 53°59' E 008°10'5 9.9
2017-Apr-24 21:30N 53°59' E 008°01'612.1
2017-Apr-24 21:00N 53°58' E 007°51'612.8
2017-Apr-24 20:30N 53°56' E 007°41'612.8
2017-Apr-24 20:00N 53°55' E 007°30'8913.5
2017-Apr-24 13:24N 53°30' E 005°05'614.3
2017-Apr-24 12:59N 53°28' E 004°56'714.0
2017-Apr-24 12:30N 53°25' E 004°45'1113.6
2017-Apr-24 11:41N 53°16' E 004°35'413.7
2017-Apr-24 11:25N 53°13' E 004°32'613.8
2017-Apr-24 11:00N 53°08' E 004°28'713.5
2017-Apr-24 10:30N 53°02' E 004°23'713.1
2017-Apr-24 10:00N 52°56' E 004°18'612.8
2017-Apr-24 09:31N 52°50' E 004°13'612.5
2017-Apr-24 09:01N 52°45' E 004°07'612.6
2017-Apr-24 08:31N 52°40' E 004°00'612.4
2017-Apr-24 08:00N 52°36' E 003°54'612.4
2017-Apr-24 07:31N 52°31' E 003°47'612.4
2017-Apr-24 07:01N 52°27' E 003°39'612.3
2017-Apr-24 06:30N 52°23' E 003°32'611.4
2017-Apr-24 06:00N 52°17' E 003°29'611.2
2017-Apr-24 05:29N 52°12' E 003°27'811.6
2017-Apr-24 04:49N 52°04' E 003°25'711.9
2017-Apr-24 04:16N 51°57' E 003°24'312.3
2017-Apr-24 04:00N 51°54' E 003°23'712.8
2017-Apr-24 03:28N 51°48' E 003°17'5 9.9
2017-Apr-24 03:00N 51°44' E 003°14'613.2
2017-Apr-24 02:30N 51°38' E 003°11'918.5
2017-Apr-24 02:00N 51°30' E 003°04'510.5
2017-Apr-24 01:30N 51°25' E 003°04'917.4
2017-Apr-24 01:00N 51°24' E 003°18'917.5
2017-Apr-24 00:30N 51°26' E 003°31'510.0
2017-Apr-24 00:01N 51°27' E 003°39'612.5
2017-Apr-23 23:31N 51°22' E 003°46'611.7
2017-Apr-23 23:00N 51°22' E 003°55'510.4
2017-Apr-23 22:30N 51°26' E 004°01'510.1
2017-Apr-23 22:00N 51°22' E 004°07'4 7.9
2017-Apr-23 21:30N 51°23' E 004°13'4 7.5
2017-Apr-23 21:00N 51°19' E 004°16'2 3.5
2017-Apr-23 20:27N 51°18' E 004°16'0 0.0
2017-Apr-23 19:59N 51°18' E 004°16'0 0.0
2017-Apr-23 19:29N 51°18' E 004°16'0 0.0
2017-Apr-23 18:56N 51°18' E 004°16'0 0.0
2017-Apr-23 18:29N 51°18' E 004°16'0 0.0
2017-Apr-23 17:56N 51°18' E 004°16'0 0.0
2017-Apr-23 17:23N 51°18' E 004°16'0 0.0
2017-Apr-23 16:57N 51°18' E 004°16'0 0.0
2017-Apr-23 16:29N 51°18' E 004°16'0 0.0
2017-Apr-23 15:59N 51°18' E 004°16'0 0.0
2017-Apr-23 15:29N 51°18' E 004°16'0 0.0
2017-Apr-23 14:59N 51°18' E 004°16'0 0.0
2017-Apr-23 14:29N 51°18' E 004°16'0 0.0
2017-Apr-23 13:29N 51°18' E 004°16'0 0.0
2017-Apr-23 12:56N 51°18' E 004°16'0 0.0
2017-Apr-23 12:29N 51°18' E 004°16'0 0.0
2017-Apr-23 11:59N 51°18' E 004°16'0 0.0
2017-Apr-23 11:27N 51°18' E 004°16'0 0.0
2017-Apr-23 10:59N 51°18' E 004°16'0 0.0
2017-Apr-23 10:29N 51°18' E 004°16'0 0.0
2017-Apr-23 09:59N 51°18' E 004°16'0 0.0
2017-Apr-23 09:29N 51°18' E 004°16'0 0.0
2017-Apr-23 08:59N 51°18' E 004°16'0 0.0
2017-Apr-23 08:29N 51°18' E 004°16'0 0.0
2017-Apr-23 07:59N 51°18' E 004°16'0 0.0
2017-Apr-23 07:29N 51°18' E 004°16'0 0.0
2017-Apr-23 06:59N 51°18' E 004°16'0 0.0
2017-Apr-23 06:29N 51°18' E 004°16'0 0.0
2017-Apr-23 05:53N 51°18' E 004°16'0 0.0
2017-Apr-23 05:29N 51°18' E 004°16'0 0.0
2017-Apr-23 04:59N 51°18' E 004°16'0 0.0
2017-Apr-23 04:29N 51°18' E 004°16'0 0.0
2017-Apr-23 03:59N 51°18' E 004°16'0 0.0
2017-Apr-23 03:29N 51°18' E 004°16'0 0.0
2017-Apr-23 03:01N 51°18' E 004°16'0 0.2
2017-Apr-23 02:30N 51°18' E 004°16'2 3.6
2017-Apr-23 02:00N 51°19' E 004°16'510.0
2017-Apr-23 01:30N 51°24' E 004°12'611.8
2017-Apr-23 01:00N 51°23' E 004°03'4 7.5
2017-Apr-23 00:30N 51°24' E 003°57'612.8
2017-Apr-23 00:01N 51°21' E 003°48'713.5
2017-Apr-22 23:30N 51°26' E 003°41'510.6
2017-Apr-22 23:00N 51°25' E 003°32'815.8
2017-Apr-22 22:31N 51°24' E 003°20'816.6
2017-Apr-22 22:01N 51°24' E 003°07'815.8
2017-Apr-22 21:31N 51°22' E 002°54'611.3
2017-Apr-22 21:00N 51°22' E 002°45'611.4
2017-Apr-22 20:30N 51°22' E 002°36'611.3
2017-Apr-22 20:00N 51°21' E 002°27'5 9.8
2017-Apr-22 19:31N 51°19' E 002°20'4 8.4
2017-Apr-22 19:01N 51°19' E 002°13'5 9.0
2017-Apr-22 18:30N 51°20' E 002°07'5 9.2
2017-Apr-22 18:00N 51°22' E 002°00'5 9.0
2017-Apr-22 17:30N 51°26' E 001°56'5 9.8
2017-Apr-22 17:00N 51°30' E 001°51'5 9.9
2017-Apr-22 16:31N 51°34' E 001°48'510.8
2017-Apr-22 16:00N 51°39' E 001°44'612.5
2017-Apr-22 15:30N 51°46' E 001°44'510.8
2017-Apr-22 15:01N 51°50' E 001°40'5 9.7
2017-Apr-22 14:31N 51°53' E 001°33'1010.1
2017-Apr-22 13:30N 51°57' E 001°18'1 1.3
2017-Apr-22 13:00N 51°58' E 001°18'0 0.0
2017-Apr-22 12:28N 51°58' E 001°18'0 0.0
2017-Apr-22 11:58N 51°58' E 001°18'0 0.0
2017-Apr-22 11:28N 51°58' E 001°18'0 0.0
2017-Apr-22 10:58N 51°58' E 001°18'0 0.0
2017-Apr-22 10:28N 51°58' E 001°18'0 0.0
2017-Apr-22 09:58N 51°58' E 001°18'0 0.0
2017-Apr-22 09:28N 51°58' E 001°18'0 0.0
2017-Apr-22 08:58N 51°58' E 001°18'0 0.0
2017-Apr-22 08:28N 51°58' E 001°18'0 0.0
2017-Apr-22 07:58N 51°58' E 001°18'0 0.0
2017-Apr-22 07:28N 51°58' E 001°18'0 0.0
2017-Apr-22 06:58N 51°58' E 001°18'0 0.0
2017-Apr-22 06:28N 51°58' E 001°18'0 0.0
2017-Apr-22 05:58N 51°58' E 001°18'0 0.0
2017-Apr-22 05:28N 51°58' E 001°18'0 0.0
2017-Apr-22 04:58N 51°58' E 001°18'0 0.0
2017-Apr-22 04:28N 51°58' E 001°18'0 0.0
2017-Apr-22 03:58N 51°58' E 001°18'0 0.0
2017-Apr-22 03:28N 51°58' E 001°18'0 0.0
2017-Apr-22 02:58N 51°58' E 001°18'0 0.0
2017-Apr-22 02:28N 51°58' E 001°18'0 0.0
2017-Apr-22 01:58N 51°58' E 001°18'0 0.0
2017-Apr-22 01:28N 51°58' E 001°18'0 0.0
2017-Apr-22 00:58N 51°58' E 001°18'0 0.0
2017-Apr-22 00:28N 51°58' E 001°18'0 0.0
2017-Apr-21 23:58N 51°58' E 001°18'0 0.0
2017-Apr-21 23:30N 51°58' E 001°18'0 0.0
2017-Apr-21 23:00N 51°58' E 001°18'0 0.0
2017-Apr-21 22:30N 51°58' E 001°18'0 0.0
2017-Apr-21 22:00N 51°58' E 001°18'0 0.0
2017-Apr-21 21:30N 51°58' E 001°18'0 0.0
2017-Apr-21 21:00N 51°58' E 001°18'0 0.0
2017-Apr-21 20:30N 51°58' E 001°18'0 0.0
2017-Apr-21 20:00N 51°58' E 001°18'0 0.0
2017-Apr-21 19:30N 51°58' E 001°18'0 0.0
2017-Apr-21 19:00N 51°58' E 001°18'0 0.0
2017-Apr-21 18:30N 51°58' E 001°18'0 0.0
2017-Apr-21 18:00N 51°58' E 001°18'0 0.0
2017-Apr-21 17:30N 51°58' E 001°18'0 0.0
2017-Apr-21 17:00N 51°58' E 001°18'1 2.6
2017-Apr-21 16:30N 51°57' E 001°19'510.0
2017-Apr-21 16:00N 51°56' E 001°27'510.8
2017-Apr-21 15:30N 51°53' E 001°34'612.3
2017-Apr-21 15:00N 51°51' E 001°43'713.1
2017-Apr-21 14:31N 51°45' E 001°48'1919.4
2017-Apr-21 13:30N 51°27' E 001°60'917.4
2017-Apr-21 13:00N 51°18' E 001°57'1019.7
2017-Apr-21 12:30N 51°11' E 001°47'817.0
2017-Apr-21 12:00N 51°04' E 001°38'714.8
2017-Apr-21 11:30N 50°58' E 001°31'714.9
2017-Apr-21 11:00N 50°52' E 001°26'714.6
2017-Apr-21 10:30N 50°45' E 001°23'714.2
2017-Apr-21 10:00N 50°39' E 001°16'815.3
2017-Apr-21 09:30N 50°34' E 001°07'815.5
2017-Apr-21 09:00N 50°30' E 000°56'816.0
2017-Apr-21 08:30N 50°28' E 000°44'916.0
2017-Apr-21 07:58N 50°26' E 000°31'716.0
2017-Apr-21 07:30N 50°24' E 000°20'816.4
2017-Apr-21 07:00N 50°22' E 000°08'918.8
2017-Apr-21 06:30N 50°19' W 000°07'1019.0
2017-Apr-21 06:00N 50°17' W 000°21'1019.2
2017-Apr-21 05:30N 50°14' W 000°35'1019.5
2017-Apr-21 05:00N 50°12' W 000°50'1019.8
2017-Apr-21 04:30N 50°09' W 001°05'1020.1
2017-Apr-21 04:00N 50°06' W 001°20'1020.3
2017-Apr-21 03:30N 50°04' W 001°35'1020.4
2017-Apr-21 03:00N 50°01' W 001°51'1020.3
2017-Apr-21 02:30N 49°58' W 002°06'1520.0
2017-Apr-21 01:45N 49°54' W 002°28'519.5
2017-Apr-21 01:28N 49°52' W 002°36'919.3
2017-Apr-21 01:00N 49°49' W 002°50'1219.1
2017-Apr-21 00:24N 49°46' W 003°07'718.9
2017-Apr-21 00:00N 49°43' W 003°17'1118.9
2017-Apr-20 23:27N 49°37' W 003°32'1118.8
2017-Apr-20 22:51N 49°32' W 003°46'618.7
2017-Apr-20 22:30N 49°28' W 003°54'5118.5
2017-Apr-20 19:46N 49°02' W 005°01'518.9
2017-Apr-20 19:29N 48°59' W 005°08'918.7
2017-Apr-20 18:58N 48°54' W 005°20'918.5
2017-Apr-20 18:30N 48°49' W 005°31'918.1
2017-Apr-20 18:00N 48°42' W 005°41'1218.1
2017-Apr-20 17:22N 48°32' W 005°50'55214.5
2017-Apr-19 03:18N 39°49' W 009°52'620.1
2017-Apr-19 03:00N 39°43' W 009°52'1020.3
2017-Apr-19 02:30N 39°32' W 009°52'1020.5
2017-Apr-19 02:00N 39°22' W 009°52'1020.4
2017-Apr-19 01:30N 39°12' W 009°52'1020.5
2017-Apr-19 01:00N 39°02' W 009°52'1020.6
2017-Apr-19 00:30N 38°51' W 009°52'1020.8
2017-Apr-19 00:00N 38°41' W 009°51'1121.1
2017-Apr-18 23:30N 38°31' W 009°48'1121.8
2017-Apr-18 23:01N 38°20' W 009°45'1122.3
2017-Apr-18 22:31N 38°09' W 009°41'1122.0
2017-Apr-18 22:01N 37°59' W 009°38'1122.2
2017-Apr-18 21:31N 37°48' W 009°34'1122.3
2017-Apr-18 21:01N 37°37' W 009°31'1122.1
2017-Apr-18 20:30N 37°26' W 009°27'1122.3
2017-Apr-18 20:00N 37°15' W 009°24'1221.8
2017-Apr-18 19:27N 37°04' W 009°21'1022.1
2017-Apr-18 19:00N 36°54' W 009°18'1122.0
2017-Apr-18 18:31N 36°46' W 009°10'1121.8
2017-Apr-18 18:00N 36°42' W 008°57'1221.9
2017-Apr-18 17:27N 36°38' W 008°43'1021.8
2017-Apr-18 16:59N 36°35' W 008°31'1121.8
2017-Apr-18 16:30N 36°31' W 008°18'1323.5
2017-Apr-18 15:58N 36°27' W 008°03'1120.2
2017-Apr-18 15:25N 36°24' W 007°50'1021.9
2017-Apr-18 14:57N 36°20' W 007°38'5021.8
2017-Apr-18 12:39N 36°04' W 006°40'3721.3
2017-Apr-18 10:54N 35°59' W 005°54'1020.7
2017-Apr-18 10:25N 35°58' W 005°42'819.6
2017-Apr-18 10:01N 35°59' W 005°32'917.0
2017-Apr-18 09:31N 36°04' W 005°24'5 9.0
2017-Apr-18 09:01N 36°08' W 005°26'0 0.3
2017-Apr-18 08:26N 36°08' W 005°26'0 0.0
2017-Apr-18 07:59N 36°08' W 005°26'0 0.0
2017-Apr-18 07:29N 36°08' W 005°26'0 0.0
2017-Apr-18 06:59N 36°08' W 005°26'0 0.0
2017-Apr-18 06:26N 36°08' W 005°26'0 0.0
2017-Apr-18 05:59N 36°08' W 005°26'0 0.0
2017-Apr-18 05:29N 36°08' W 005°26'0 0.0
2017-Apr-18 04:59N 36°08' W 005°26'0 0.0
2017-Apr-18 04:29N 36°08' W 005°26'0 0.0
2017-Apr-18 03:59N 36°08' W 005°26'0 0.0
2017-Apr-18 03:29N 36°08' W 005°26'0 0.0
2017-Apr-18 02:59N 36°08' W 005°26'0 0.0
2017-Apr-18 02:29N 36°08' W 005°26'0 0.0
2017-Apr-18 01:59N 36°08' W 005°26'0 0.0
2017-Apr-18 01:29N 36°08' W 005°26'0 0.0
2017-Apr-18 00:59N 36°08' W 005°26'0 0.0
2017-Apr-18 00:29N 36°08' W 005°26'0 0.0
2017-Apr-17 23:59N 36°08' W 005°26'0 0.0
2017-Apr-17 23:29N 36°08' W 005°26'0 0.0
2017-Apr-17 22:59N 36°08' W 005°26'0 0.0
2017-Apr-17 22:29N 36°08' W 005°26'0 0.0
2017-Apr-17 21:59N 36°08' W 005°26'0 0.0
2017-Apr-17 21:29N 36°08' W 005°26'0 0.0
2017-Apr-17 20:59N 36°08' W 005°26'0 0.0
2017-Apr-17 20:29N 36°08' W 005°26'0 0.0
2017-Apr-17 19:59N 36°08' W 005°26'0 0.0
2017-Apr-17 19:29N 36°08' W 005°26'0 0.0
2017-Apr-17 18:59N 36°08' W 005°26'  

Dump ship's entire track history